Le Grand, CA (95333)

12:58 AM PST on December 05, 2016 (GMT -0800)
Berenda Reservoir | | Change Station

Elev 289 ft 37.13 °N, 120.17 °W | Updated 51 seconds ago

Clear
Clear
41.2 °F
Feels Like 41 °F
N
0.0
Wind Variable Wind from ESE
Gusts 2.0 mph

Today
High -- | Low -- °F
--% Chance of Precip.
Yesterday
High -- | Low -- °F
Precip. -- in
Pressure 30.09 in
Visibility 4.0 miles
Clouds Clear
Windchill 41 °F
Dew Point 30 °F
Humidity 65%
Rainfall 0.00 in
Snow Depth Not available.
7:00 AM 4:43 PM
Waxing Crescent, 30% visible
METAR KMCE 050853Z AUTO 11004KT 4SM BR CLR 04/03 A3009 RMK AO2 SLP190 T00390028 58006 TSNO
Pressure 30.09 in
Visibility 4.0 miles
Clouds Clear
Windchill 41 °F
Dew Point 30 °F
Humidity 65%
Rainfall 0.00 in
Snow Depth Not available.
7:00 AM 4:43 PM
Waxing Crescent, 30% visible
METAR KMCE 050853Z AUTO 11004KT 4SM BR CLR 04/03 A3009 RMK AO2 SLP190 T00390028 58006 TSNO

10-Day Weather Forecast

Almanac

Astronomy

Dec. 05, 2016 Rise Set
Actual Time
Civil Twilight
Nautical Twilight
Astronomical Twilight
Moon
Length of Visible Light
Length of Day
Tomorrow will be .
, % of the Moon is Illuminated

Today's Extremes

State Highs State Lows

Community

WunderPhotos

Upload Photos

1,955,771 photos uploaded!

WunderBlog® & News

Nearby

Air Quality

  Air Quality AQ Index Pollutant
Not available.

Snow Depth

Station Depth Elevation

Earthquake Activity

City Distance Mag. Time & Date
Minimum magnitude displayed is 2.5.

Coastal Water Temperatures

Place Temperature

Stations

Nearby Weather Stations

Station Location Temp. Windchill Dew Point Humidity Wind Precip. Elev Updated Type
                   

Watches & Warnings

There are currently no watches in effect.